sensor_id;sensor_type;location;lat;lon;timestamp;P1;durP1;ratioP1;P2;durP2;ratioP2
75054;SDS011;63636;44.746;10.488;2023-04-24T00:02:02;4.63;;;2.38;;
75054;SDS011;63636;44.746;10.488;2023-04-24T00:04:29;3.22;;;2.03;;
75054;SDS011;63636;44.746;10.488;2023-04-24T00:06:55;3.88;;;2.17;;
75054;SDS011;63636;44.746;10.488;2023-04-24T00:09:22;6.65;;;2.30;;
75054;SDS011;63636;44.746;10.488;2023-04-24T00:11:48;5.13;;;2.28;;
75054;SDS011;63636;44.746;10.488;2023-04-24T00:14:13;5.57;;;2.33;;
75054;SDS011;63636;44.746;10.488;2023-04-24T00:16:39;4.95;;;2.30;;
75054;SDS011;63636;44.746;10.488;2023-04-24T00:19:04;4.97;;;2.58;;
75054;SDS011;63636;44.746;10.488;2023-04-24T00:21:31;5.53;;;2.42;;
75054;SDS011;63636;44.746;10.488;2023-04-24T00:23:58;5.70;;;2.80;;
75054;SDS011;63636;44.746;10.488;2023-04-24T00:26:23;5.05;;;2.80;;
75054;SDS011;63636;44.746;10.488;2023-04-24T00:28:49;4.35;;;2.70;;
75054;SDS011;63636;44.746;10.488;2023-04-24T00:31:14;5.18;;;2.83;;
75054;SDS011;63636;44.746;10.488;2023-04-24T00:33:40;6.13;;;2.88;;
75054;SDS011;63636;44.746;10.488;2023-04-24T00:36:06;5.68;;;2.70;;
75054;SDS011;63636;44.746;10.488;2023-04-24T00:38:32;8.15;;;3.20;;
75054;SDS011;63636;44.746;10.488;2023-04-24T00:40:57;5.20;;;3.35;;
75054;SDS011;63636;44.746;10.488;2023-04-24T00:43:23;5.43;;;3.65;;
75054;SDS011;63636;44.746;10.488;2023-04-24T00:45:48;5.65;;;3.40;;
75054;SDS011;63636;44.746;10.488;2023-04-24T00:48:14;7.03;;;3.78;;
75054;SDS011;63636;44.746;10.488;2023-04-24T00:50:40;7.65;;;3.60;;
75054;SDS011;63636;44.746;10.488;2023-04-24T00:53:05;9.95;;;3.47;;
75054;SDS011;63636;44.746;10.488;2023-04-24T00:55:31;6.47;;;3.42;;
75054;SDS011;63636;44.746;10.488;2023-04-24T00:57:57;6.97;;;3.70;;
75054;SDS011;63636;44.746;10.488;2023-04-24T01:00:23;5.97;;;3.42;;
75054;SDS011;63636;44.746;10.488;2023-04-24T01:02:49;7.50;;;3.47;;
75054;SDS011;63636;44.746;10.488;2023-04-24T01:05:15;7.32;;;3.42;;
75054;SDS011;63636;44.746;10.488;2023-04-24T01:07:41;7.25;;;3.70;;
75054;SDS011;63636;44.746;10.488;2023-04-24T01:10:09;5.45;;;3.47;;
75054;SDS011;63636;44.746;10.488;2023-04-24T01:12:35;5.38;;;3.30;;
75054;SDS011;63636;44.746;10.488;2023-04-24T01:15:00;8.70;;;3.38;;
75054;SDS011;63636;44.746;10.488;2023-04-24T01:17:26;7.03;;;3.70;;
75054;SDS011;63636;44.746;10.488;2023-04-24T01:19:59;6.40;;;3.78;;
75054;SDS011;63636;44.746;10.488;2023-04-24T01:22:26;6.28;;;3.78;;
75054;SDS011;63636;44.746;10.488;2023-04-24T01:24:52;6.07;;;3.60;;
75054;SDS011;63636;44.746;10.488;2023-04-24T01:27:18;7.07;;;4.00;;
75054;SDS011;63636;44.746;10.488;2023-04-24T01:29:44;6.70;;;3.95;;
75054;SDS011;63636;44.746;10.488;2023-04-24T01:32:10;6.70;;;4.10;;
75054;SDS011;63636;44.746;10.488;2023-04-24T01:34:35;7.22;;;4.25;;
75054;SDS011;63636;44.746;10.488;2023-04-24T01:37:01;8.15;;;4.10;;
75054;SDS011;63636;44.746;10.488;2023-04-24T01:39:27;6.97;;;4.35;;
75054;SDS011;63636;44.746;10.488;2023-04-24T01:41:54;7.93;;;4.50;;
75054;SDS011;63636;44.746;10.488;2023-04-24T01:44:19;7.43;;;4.32;;
75054;SDS011;63636;44.746;10.488;2023-04-24T01:46:45;7.22;;;4.32;;
75054;SDS011;63636;44.746;10.488;2023-04-24T01:49:10;8.23;;;4.63;;
75054;SDS011;63636;44.746;10.488;2023-04-24T01:51:37;8.48;;;4.72;;
75054;SDS011;63636;44.746;10.488;2023-04-24T01:54:03;8.23;;;5.15;;
75054;SDS011;63636;44.746;10.488;2023-04-24T01:56:29;8.25;;;5.22;;
75054;SDS011;63636;44.746;10.488;2023-04-24T01:58:54;9.32;;;5.22;;
75054;SDS011;63636;44.746;10.488;2023-04-24T02:01:20;7.03;;;4.82;;
75054;SDS011;63636;44.746;10.488;2023-04-24T02:03:46;8.35;;;5.18;;
75054;SDS011;63636;44.746;10.488;2023-04-24T02:06:12;9.15;;;5.30;;
75054;SDS011;63636;44.746;10.488;2023-04-24T02:08:37;9.25;;;5.28;;
75054;SDS011;63636;44.746;10.488;2023-04-24T02:11:03;8.18;;;5.05;;
75054;SDS011;63636;44.746;10.488;2023-04-24T02:13:30;8.90;;;5.60;;
75054;SDS011;63636;44.746;10.488;2023-04-24T02:15:55;9.70;;;5.43;;
75054;SDS011;63636;44.746;10.488;2023-04-24T02:18:22;8.30;;;5.00;;
75054;SDS011;63636;44.746;10.488;2023-04-24T02:20:49;7.90;;;5.22;;
75054;SDS011;63636;44.746;10.488;2023-04-24T02:23:15;7.93;;;5.10;;
75054;SDS011;63636;44.746;10.488;2023-04-24T02:25:40;8.25;;;5.10;;
75054;SDS011;63636;44.746;10.488;2023-04-24T02:28:06;9.38;;;5.93;;
75054;SDS011;63636;44.746;10.488;2023-04-24T02:30:33;9.55;;;5.72;;
75054;SDS011;63636;44.746;10.488;2023-04-24T02:32:58;9.93;;;5.85;;
75054;SDS011;63636;44.746;10.488;2023-04-24T02:35:24;10.48;;;6.45;;
75054;SDS011;63636;44.746;10.488;2023-04-24T02:37:49;10.02;;;6.15;;
75054;SDS011;63636;44.746;10.488;2023-04-24T02:40:15;12.93;;;7.00;;
75054;SDS011;63636;44.746;10.488;2023-04-24T02:42:40;10.02;;;6.20;;
75054;SDS011;63636;44.746;10.488;2023-04-24T02:45:06;10.43;;;6.45;;
75054;SDS011;63636;44.746;10.488;2023-04-24T02:47:32;8.95;;;5.90;;
75054;SDS011;63636;44.746;10.488;2023-04-24T02:49:59;9.80;;;6.60;;
75054;SDS011;63636;44.746;10.488;2023-04-24T02:52:24;9.20;;;5.90;;
75054;SDS011;63636;44.746;10.488;2023-04-24T02:54:50;9.63;;;6.32;;
75054;SDS011;63636;44.746;10.488;2023-04-24T02:57:15;10.05;;;6.22;;
75054;SDS011;63636;44.746;10.488;2023-04-24T02:59:41;9.77;;;5.90;;
75054;SDS011;63636;44.746;10.488;2023-04-24T03:02:10;12.15;;;6.13;;
75054;SDS011;63636;44.746;10.488;2023-04-24T03:04:36;11.13;;;6.72;;
75054;SDS011;63636;44.746;10.488;2023-04-24T03:07:01;9.73;;;5.82;;
75054;SDS011;63636;44.746;10.488;2023-04-24T03:09:27;11.13;;;7.38;;
75054;SDS011;63636;44.746;10.488;2023-04-24T03:11:52;11.95;;;7.32;;
75054;SDS011;63636;44.746;10.488;2023-04-24T03:14:18;9.50;;;6.40;;
75054;SDS011;63636;44.746;10.488;2023-04-24T03:16:44;10.45;;;6.78;;
75054;SDS011;63636;44.746;10.488;2023-04-24T03:19:10;10.80;;;6.68;;
75054;SDS011;63636;44.746;10.488;2023-04-24T03:21:44;10.95;;;7.13;;
75054;SDS011;63636;44.746;10.488;2023-04-24T03:24:10;11.20;;;7.20;;
75054;SDS011;63636;44.746;10.488;2023-04-24T03:26:36;10.77;;;7.28;;
75054;SDS011;63636;44.746;10.488;2023-04-24T03:29:34;10.20;;;6.75;;
75054;SDS011;63636;44.746;10.488;2023-04-24T03:32:01;10.65;;;6.97;;
75054;SDS011;63636;44.746;10.488;2023-04-24T03:34:28;9.88;;;6.70;;
75054;SDS011;63636;44.746;10.488;2023-04-24T03:36:55;9.40;;;6.50;;
75054;SDS011;63636;44.746;10.488;2023-04-24T03:39:21;11.02;;;6.60;;
75054;SDS011;63636;44.746;10.488;2023-04-24T03:41:52;11.60;;;7.18;;
75054;SDS011;63636;44.746;10.488;2023-04-24T03:44:22;9.80;;;6.35;;
75054;SDS011;63636;44.746;10.488;2023-04-24T03:46:48;11.75;;;6.97;;
75054;SDS011;63636;44.746;10.488;2023-04-24T03:49:14;9.70;;;6.93;;
75054;SDS011;63636;44.746;10.488;2023-04-24T03:51:42;10.88;;;6.93;;
75054;SDS011;63636;44.746;10.488;2023-04-24T03:54:17;10.35;;;6.53;;
75054;SDS011;63636;44.746;10.488;2023-04-24T03:56:44;9.88;;;7.05;;
75054;SDS011;63636;44.746;10.488;2023-04-24T03:59:10;10.65;;;7.20;;
75054;SDS011;63636;44.746;10.488;2023-04-24T04:01:36;10.63;;;6.95;;
75054;SDS011;63636;44.746;10.488;2023-04-24T04:04:08;10.60;;;7.20;;
75054;SDS011;63636;44.746;10.488;2023-04-24T04:06:35;10.88;;;7.32;;
75054;SDS011;63636;44.746;10.488;2023-04-24T04:09:01;10.80;;;7.13;;
75054;SDS011;63636;44.746;10.488;2023-04-24T04:11:28;10.82;;;7.00;;
75054;SDS011;63636;44.746;10.488;2023-04-24T04:13:54;10.55;;;6.75;;
75054;SDS011;63636;44.746;10.488;2023-04-24T04:16:21;10.55;;;6.95;;
75054;SDS011;63636;44.746;10.488;2023-04-24T04:18:48;11.27;;;7.13;;
75054;SDS011;63636;44.746;10.488;2023-04-24T04:21:14;10.23;;;6.50;;
75054;SDS011;63636;44.746;10.488;2023-04-24T04:23:40;10.88;;;6.93;;
75054;SDS011;63636;44.746;10.488;2023-04-24T04:26:14;11.20;;;6.65;;
75054;SDS011;63636;44.746;10.488;2023-04-24T04:29:02;9.13;;;6.28;;
75054;SDS011;63636;44.746;10.488;2023-04-24T04:31:29;9.95;;;6.93;;
75054;SDS011;63636;44.746;10.488;2023-04-24T04:33:58;11.43;;;6.88;;
75054;SDS011;63636;44.746;10.488;2023-04-24T04:36:24;9.50;;;6.90;;
75054;SDS011;63636;44.746;10.488;2023-04-24T04:38:56;10.05;;;6.78;;
75054;SDS011;63636;44.746;10.488;2023-04-24T04:41:53;12.35;;;6.95;;
75054;SDS011;63636;44.746;10.488;2023-04-24T04:44:21;10.73;;;6.43;;
75054;SDS011;63636;44.746;10.488;2023-04-24T04:46:47;11.65;;;6.82;;
75054;SDS011;63636;44.746;10.488;2023-04-24T04:49:21;10.43;;;6.75;;
75054;SDS011;63636;44.746;10.488;2023-04-24T04:51:47;9.13;;;6.18;;
75054;SDS011;63636;44.746;10.488;2023-04-24T04:54:14;10.70;;;6.68;;
75054;SDS011;63636;44.746;10.488;2023-04-24T04:56:40;10.27;;;6.50;;
75054;SDS011;63636;44.746;10.488;2023-04-24T04:59:05;10.35;;;6.45;;
75054;SDS011;63636;44.746;10.488;2023-04-24T05:01:32;9.80;;;6.88;;
75054;SDS011;63636;44.746;10.488;2023-04-24T05:03:58;11.10;;;6.43;;
75054;SDS011;63636;44.746;10.488;2023-04-24T05:06:23;10.85;;;6.07;;
75054;SDS011;63636;44.746;10.488;2023-04-24T05:08:50;9.65;;;6.15;;
75054;SDS011;63636;44.746;10.488;2023-04-24T05:11:28;8.57;;;6.25;;
75054;SDS011;63636;44.746;10.488;2023-04-24T05:13:56;9.48;;;6.63;;
75054;SDS011;63636;44.746;10.488;2023-04-24T05:16:30;9.80;;;6.63;;
75054;SDS011;63636;44.746;10.488;2023-04-24T05:18:56;11.10;;;7.93;;
75054;SDS011;63636;44.746;10.488;2023-04-24T05:21:28;14.70;;;7.35;;
75054;SDS011;63636;44.746;10.488;2023-04-24T05:23:54;12.10;;;7.93;;
75054;SDS011;63636;44.746;10.488;2023-04-24T05:29:03;14.30;;;7.63;;
75054;SDS011;63636;44.746;10.488;2023-04-24T05:31:30;12.35;;;7.53;;
75054;SDS011;63636;44.746;10.488;2023-04-24T05:33:56;11.27;;;7.18;;
75054;SDS011;63636;44.746;10.488;2023-04-24T05:36:22;9.85;;;7.20;;
75054;SDS011;63636;44.746;10.488;2023-04-24T05:38:47;10.93;;;7.00;;
75054;SDS011;63636;44.746;10.488;2023-04-24T05:41:14;13.07;;;7.88;;
75054;SDS011;63636;44.746;10.488;2023-04-24T05:43:40;8.90;;;6.30;;
75054;SDS011;63636;44.746;10.488;2023-04-24T05:46:06;10.25;;;6.40;;
75054;SDS011;63636;44.746;10.488;2023-04-24T05:48:32;11.27;;;5.85;;
75054;SDS011;63636;44.746;10.488;2023-04-24T05:51:00;10.25;;;6.30;;
75054;SDS011;63636;44.746;10.488;2023-04-24T05:53:26;10.55;;;6.43;;
75054;SDS011;63636;44.746;10.488;2023-04-24T05:55:52;8.98;;;6.05;;
75054;SDS011;63636;44.746;10.488;2023-04-24T05:58:19;9.02;;;5.82;;
75054;SDS011;63636;44.746;10.488;2023-04-24T06:00:46;10.52;;;5.93;;
75054;SDS011;63636;44.746;10.488;2023-04-24T06:03:12;9.32;;;6.00;;
75054;SDS011;63636;44.746;10.488;2023-04-24T06:05:37;10.25;;;6.25;;
75054;SDS011;63636;44.746;10.488;2023-04-24T06:08:03;9.05;;;6.05;;
75054;SDS011;63636;44.746;10.488;2023-04-24T06:10:33;9.48;;;6.03;;
75054;SDS011;63636;44.746;10.488;2023-04-24T06:12:59;10.30;;;6.22;;
75054;SDS011;63636;44.746;10.488;2023-04-24T06:15:28;10.13;;;6.60;;
75054;SDS011;63636;44.746;10.488;2023-04-24T06:18:00;9.90;;;5.93;;
75054;SDS011;63636;44.746;10.488;2023-04-24T06:20:25;9.15;;;6.13;;
75054;SDS011;63636;44.746;10.488;2023-04-24T06:22:51;9.43;;;6.25;;
75054;SDS011;63636;44.746;10.488;2023-04-24T06:25:17;9.77;;;6.13;;
75054;SDS011;63636;44.746;10.488;2023-04-24T06:27:42;8.85;;;6.18;;
75054;SDS011;63636;44.746;10.488;2023-04-24T06:30:08;9.07;;;6.75;;
75054;SDS011;63636;44.746;10.488;2023-04-24T06:32:34;10.05;;;6.60;;
75054;SDS011;63636;44.746;10.488;2023-04-24T06:34:59;9.52;;;6.85;;
75054;SDS011;63636;44.746;10.488;2023-04-24T06:37:25;10.50;;;6.70;;
75054;SDS011;63636;44.746;10.488;2023-04-24T06:39:54;10.95;;;6.57;;
75054;SDS011;63636;44.746;10.488;2023-04-24T06:42:20;9.68;;;6.90;;
75054;SDS011;63636;44.746;10.488;2023-04-24T06:44:49;9.38;;;6.60;;
75054;SDS011;63636;44.746;10.488;2023-04-24T06:47:15;9.82;;;6.35;;
75054;SDS011;63636;44.746;10.488;2023-04-24T06:49:41;10.95;;;7.03;;
75054;SDS011;63636;44.746;10.488;2023-04-24T06:52:06;9.50;;;6.43;;
75054;SDS011;63636;44.746;10.488;2023-04-24T06:54:32;10.77;;;6.45;;
75054;SDS011;63636;44.746;10.488;2023-04-24T06:56:58;9.27;;;6.40;;
75054;SDS011;63636;44.746;10.488;2023-04-24T06:59:26;9.57;;;6.70;;
75054;SDS011;63636;44.746;10.488;2023-04-24T07:01:51;11.48;;;6.85;;
75054;SDS011;63636;44.746;10.488;2023-04-24T07:04:17;10.00;;;6.53;;
75054;SDS011;63636;44.746;10.488;2023-04-24T07:06:53;8.82;;;6.00;;
75054;SDS011;63636;44.746;10.488;2023-04-24T07:09:21;10.02;;;6.47;;
75054;SDS011;63636;44.746;10.488;2023-04-24T07:11:47;9.02;;;6.03;;
75054;SDS011;63636;44.746;10.488;2023-04-24T07:14:13;9.18;;;6.40;;
75054;SDS011;63636;44.746;10.488;2023-04-24T07:16:41;9.02;;;6.15;;
75054;SDS011;63636;44.746;10.488;2023-04-24T07:19:07;9.45;;;5.82;;
75054;SDS011;63636;44.746;10.488;2023-04-24T07:21:39;8.83;;;5.90;;
75054;SDS011;63636;44.746;10.488;2023-04-24T07:24:09;8.98;;;5.80;;
75054;SDS011;63636;44.746;10.488;2023-04-24T07:26:36;8.02;;;5.05;;
75054;SDS011;63636;44.746;10.488;2023-04-24T07:29:05;7.13;;;4.80;;
75054;SDS011;63636;44.746;10.488;2023-04-24T07:31:40;9.38;;;4.90;;
75054;SDS011;63636;44.746;10.488;2023-04-24T07:34:07;8.23;;;5.30;;
75054;SDS011;63636;44.746;10.488;2023-04-24T07:36:33;9.85;;;5.05;;
75054;SDS011;63636;44.746;10.488;2023-04-24T07:39:04;7.55;;;4.63;;
75054;SDS011;63636;44.746;10.488;2023-04-24T07:41:31;8.68;;;4.80;;
75054;SDS011;63636;44.746;10.488;2023-04-24T07:43:56;6.63;;;4.25;;
75054;SDS011;63636;44.746;10.488;2023-04-24T07:46:22;8.25;;;4.55;;
75054;SDS011;63636;44.746;10.488;2023-04-24T07:48:48;11.98;;;4.30;;
75054;SDS011;63636;44.746;10.488;2023-04-24T07:51:17;7.07;;;4.10;;
75054;SDS011;63636;44.746;10.488;2023-04-24T07:53:43;8.48;;;4.40;;
75054;SDS011;63636;44.746;10.488;2023-04-24T07:56:08;8.57;;;4.70;;
75054;SDS011;63636;44.746;10.488;2023-04-24T07:58:34;7.95;;;5.22;;
75054;SDS011;63636;44.746;10.488;2023-04-24T08:01:00;8.05;;;4.90;;
75054;SDS011;63636;44.746;10.488;2023-04-24T08:03:27;8.10;;;4.75;;
75054;SDS011;63636;44.746;10.488;2023-04-24T08:05:52;8.38;;;4.63;;
75054;SDS011;63636;44.746;10.488;2023-04-24T08:08:20;7.85;;;4.70;;
75054;SDS011;63636;44.746;10.488;2023-04-24T08:10:46;8.23;;;5.07;;
75054;SDS011;63636;44.746;10.488;2023-04-24T08:13:11;8.93;;;4.97;;
75054;SDS011;63636;44.746;10.488;2023-04-24T08:15:37;9.07;;;5.30;;
75054;SDS011;63636;44.746;10.488;2023-04-24T08:18:03;8.15;;;5.15;;
75054;SDS011;63636;44.746;10.488;2023-04-24T08:20:29;9.32;;;4.85;;
75054;SDS011;63636;44.746;10.488;2023-04-24T08:22:54;7.32;;;4.63;;
75054;SDS011;63636;44.746;10.488;2023-04-24T08:25:20;10.25;;;5.15;;
75054;SDS011;63636;44.746;10.488;2023-04-24T08:27:48;8.90;;;5.22;;
75054;SDS011;63636;44.746;10.488;2023-04-24T08:30:13;8.25;;;5.13;;
75054;SDS011;63636;44.746;10.488;2023-04-24T08:32:39;9.38;;;4.93;;
75054;SDS011;63636;44.746;10.488;2023-04-24T08:35:05;8.02;;;4.97;;
75054;SDS011;63636;44.746;10.488;2023-04-24T08:37:30;8.05;;;4.43;;
75054;SDS011;63636;44.746;10.488;2023-04-24T08:39:56;6.30;;;3.90;;
75054;SDS011;63636;44.746;10.488;2023-04-24T08:42:22;5.97;;;3.70;;
75054;SDS011;63636;44.746;10.488;2023-04-24T08:44:48;6.85;;;3.80;;
75054;SDS011;63636;44.746;10.488;2023-04-24T08:47:14;6.68;;;3.88;;
75054;SDS011;63636;44.746;10.488;2023-04-24T08:49:40;7.05;;;3.72;;
75054;SDS011;63636;44.746;10.488;2023-04-24T08:52:05;9.32;;;4.20;;
75054;SDS011;63636;44.746;10.488;2023-04-24T08:54:32;7.85;;;4.15;;
75054;SDS011;63636;44.746;10.488;2023-04-24T08:56:59;7.18;;;3.95;;
75054;SDS011;63636;44.746;10.488;2023-04-24T08:59:26;7.95;;;4.40;;
75054;SDS011;63636;44.746;10.488;2023-04-24T09:01:52;9.88;;;4.80;;
75054;SDS011;63636;44.746;10.488;2023-04-24T09:04:18;9.43;;;4.25;;
75054;SDS011;63636;44.746;10.488;2023-04-24T09:06:47;6.88;;;3.80;;
75054;SDS011;63636;44.746;10.488;2023-04-24T09:09:13;6.90;;;3.38;;
75054;SDS011;63636;44.746;10.488;2023-04-24T09:11:38;6.20;;;3.60;;
75054;SDS011;63636;44.746;10.488;2023-04-24T09:14:05;5.80;;;3.30;;
75054;SDS011;63636;44.746;10.488;2023-04-24T09:16:31;9.80;;;3.80;;
75054;SDS011;63636;44.746;10.488;2023-04-24T09:18:58;17.58;;;5.45;;
75054;SDS011;63636;44.746;10.488;2023-04-24T09:21:23;7.93;;;3.70;;
75054;SDS011;63636;44.746;10.488;2023-04-24T09:23:59;8.55;;;4.07;;
75054;SDS011;63636;44.746;10.488;2023-04-24T09:26:25;6.07;;;3.60;;
75054;SDS011;63636;44.746;10.488;2023-04-24T09:28:53;7.38;;;3.83;;
75054;SDS011;63636;44.746;10.488;2023-04-24T09:31:19;5.95;;;3.30;;
75054;SDS011;63636;44.746;10.488;2023-04-24T09:33:57;5.05;;;2.95;;
75054;SDS011;63636;44.746;10.488;2023-04-24T09:36:30;7.95;;;3.45;;
75054;SDS011;63636;44.746;10.488;2023-04-24T09:39:01;5.63;;;3.22;;
75054;SDS011;63636;44.746;10.488;2023-04-24T09:41:27;6.03;;;3.33;;
75054;SDS011;63636;44.746;10.488;2023-04-24T09:43:54;6.72;;;3.53;;
75054;SDS011;63636;44.746;10.488;2023-04-24T09:46:20;7.03;;;3.65;;
75054;SDS011;63636;44.746;10.488;2023-04-24T09:48:47;9.27;;;4.30;;
75054;SDS011;63636;44.746;10.488;2023-04-24T09:51:13;6.57;;;3.70;;
75054;SDS011;63636;44.746;10.488;2023-04-24T09:53:45;6.43;;;3.60;;
75054;SDS011;63636;44.746;10.488;2023-04-24T09:56:13;7.53;;;3.78;;
75054;SDS011;63636;44.746;10.488;2023-04-24T09:58:39;5.53;;;3.65;;
75054;SDS011;63636;44.746;10.488;2023-04-24T10:01:04;7.90;;;3.42;;
75054;SDS011;63636;44.746;10.488;2023-04-24T10:03:30;6.15;;;3.60;;
75054;SDS011;63636;44.746;10.488;2023-04-24T10:06:00;5.82;;;3.40;;
75054;SDS011;63636;44.746;10.488;2023-04-24T10:08:26;6.30;;;3.70;;
75054;SDS011;63636;44.746;10.488;2023-04-24T10:10:52;8.05;;;3.88;;
75054;SDS011;63636;44.746;10.488;2023-04-24T10:13:17;6.47;;;4.18;;
75054;SDS011;63636;44.746;10.488;2023-04-24T10:15:43;5.53;;;3.33;;
75054;SDS011;63636;44.746;10.488;2023-04-24T10:18:09;4.90;;;3.10;;
75054;SDS011;63636;44.746;10.488;2023-04-24T10:20:35;7.18;;;4.00;;
75054;SDS011;63636;44.746;10.488;2023-04-24T10:23:01;6.28;;;3.30;;
75054;SDS011;63636;44.746;10.488;2023-04-24T10:25:28;5.68;;;3.00;;
75054;SDS011;63636;44.746;10.488;2023-04-24T10:27:54;4.22;;;2.50;;
75054;SDS011;63636;44.746;10.488;2023-04-24T10:30:25;4.32;;;2.40;;
75054;SDS011;63636;44.746;10.488;2023-04-24T10:32:50;4.20;;;2.40;;
75054;SDS011;63636;44.746;10.488;2023-04-24T10:35:16;5.68;;;2.92;;
75054;SDS011;63636;44.746;10.488;2023-04-24T10:37:46;5.10;;;2.53;;
75054;SDS011;63636;44.746;10.488;2023-04-24T10:40:16;5.20;;;2.78;;
75054;SDS011;63636;44.746;10.488;2023-04-24T10:42:42;5.85;;;3.30;;
75054;SDS011;63636;44.746;10.488;2023-04-24T10:45:15;4.10;;;2.72;;
75054;SDS011;63636;44.746;10.488;2023-04-24T10:47:41;4.18;;;2.70;;
75054;SDS011;63636;44.746;10.488;2023-04-24T10:50:09;5.47;;;2.58;;
75054;SDS011;63636;44.746;10.488;2023-04-24T10:52:44;4.82;;;2.50;;
75054;SDS011;63636;44.746;10.488;2023-04-24T10:55:12;3.83;;;2.53;;
75054;SDS011;63636;44.746;10.488;2023-04-24T10:57:37;4.10;;;2.90;;
75054;SDS011;63636;44.746;10.488;2023-04-24T11:00:16;5.15;;;3.58;;
75054;SDS011;63636;44.746;10.488;2023-04-24T11:02:45;4.57;;;2.90;;
75054;SDS011;63636;44.746;10.488;2023-04-24T11:05:14;5.00;;;3.25;;
75054;SDS011;63636;44.746;10.488;2023-04-24T11:10:28;4.30;;;2.42;;
75054;SDS011;63636;44.746;10.488;2023-04-24T11:12:53;5.47;;;2.97;;
75054;SDS011;63636;44.746;10.488;2023-04-24T11:15:19;4.97;;;3.10;;
75054;SDS011;63636;44.746;10.488;2023-04-24T11:17:45;4.63;;;2.60;;
75054;SDS011;63636;44.746;10.488;2023-04-24T11:20:11;7.03;;;3.28;;
75054;SDS011;63636;44.746;10.488;2023-04-24T11:22:38;5.00;;;3.40;;
75054;SDS011;63636;44.746;10.488;2023-04-24T11:25:05;6.10;;;3.30;;
75054;SDS011;63636;44.746;10.488;2023-04-24T11:27:42;7.03;;;3.45;;
75054;SDS011;63636;44.746;10.488;2023-04-24T11:30:08;4.68;;;2.65;;
75054;SDS011;63636;44.746;10.488;2023-04-24T11:37:35;4.70;;;3.30;;
75054;SDS011;63636;44.746;10.488;2023-04-24T11:40:01;4.43;;;2.90;;
75054;SDS011;63636;44.746;10.488;2023-04-24T11:42:27;4.75;;;3.03;;
75054;SDS011;63636;44.746;10.488;2023-04-24T11:44:53;4.90;;;2.80;;
75054;SDS011;63636;44.746;10.488;2023-04-24T11:47:42;5.85;;;3.00;;
75054;SDS011;63636;44.746;10.488;2023-04-24T11:50:07;4.38;;;2.67;;
75054;SDS011;63636;44.746;10.488;2023-04-24T11:52:33;6.32;;;2.90;;
75054;SDS011;63636;44.746;10.488;2023-04-24T11:55:01;4.20;;;3.00;;
75054;SDS011;63636;44.746;10.488;2023-04-24T11:57:27;4.63;;;3.08;;
75054;SDS011;63636;44.746;10.488;2023-04-24T11:59:59;16.98;;;3.63;;
75054;SDS011;63636;44.746;10.488;2023-04-24T12:02:25;4.78;;;2.80;;
75054;SDS011;63636;44.746;10.488;2023-04-24T12:04:53;5.32;;;2.80;;
75054;SDS011;63636;44.746;10.488;2023-04-24T12:07:21;5.05;;;2.60;;
75054;SDS011;63636;44.746;10.488;2023-04-24T12:09:48;4.30;;;2.47;;
75054;SDS011;63636;44.746;10.488;2023-04-24T12:12:15;3.92;;;2.80;;
75054;SDS011;63636;44.746;10.488;2023-04-24T12:14:51;7.03;;;2.65;;
75054;SDS011;63636;44.746;10.488;2023-04-24T12:17:17;3.25;;;2.10;;
75054;SDS011;63636;44.746;10.488;2023-04-24T12:19:48;7.43;;;2.55;;
75054;SDS011;63636;44.746;10.488;2023-04-24T12:22:17;2.83;;;2.40;;
75054;SDS011;63636;44.746;10.488;2023-04-24T12:24:58;4.15;;;2.45;;
75054;SDS011;63636;44.746;10.488;2023-04-24T12:27:29;3.42;;;2.55;;
75054;SDS011;63636;44.746;10.488;2023-04-24T12:29:55;3.50;;;2.28;;
75054;SDS011;63636;44.746;10.488;2023-04-24T12:32:21;5.03;;;2.20;;
75054;SDS011;63636;44.746;10.488;2023-04-24T12:34:47;3.22;;;2.00;;
75054;SDS011;63636;44.746;10.488;2023-04-24T12:37:12;3.15;;;2.20;;
75054;SDS011;63636;44.746;10.488;2023-04-24T12:39:38;5.20;;;2.90;;
75054;SDS011;63636;44.746;10.488;2023-04-24T12:42:03;3.92;;;2.35;;
75054;SDS011;63636;44.746;10.488;2023-04-24T12:44:32;3.55;;;2.42;;
75054;SDS011;63636;44.746;10.488;2023-04-24T12:47:00;3.92;;;2.50;;
75054;SDS011;63636;44.746;10.488;2023-04-24T12:49:26;4.47;;;2.80;;
75054;SDS011;63636;44.746;10.488;2023-04-24T12:51:52;4.10;;;2.80;;
75054;SDS011;63636;44.746;10.488;2023-04-24T12:54:18;3.33;;;2.60;;
75054;SDS011;63636;44.746;10.488;2023-04-24T12:56:43;3.83;;;2.30;;
75054;SDS011;63636;44.746;10.488;2023-04-24T12:59:09;4.35;;;2.80;;
75054;SDS011;63636;44.746;10.488;2023-04-24T13:01:35;3.80;;;2.40;;
75054;SDS011;63636;44.746;10.488;2023-04-24T13:04:00;3.72;;;2.70;;
75054;SDS011;63636;44.746;10.488;2023-04-24T13:06:26;4.97;;;2.63;;
75054;SDS011;63636;44.746;10.488;2023-04-24T13:08:51;4.45;;;2.83;;
75054;SDS011;63636;44.746;10.488;2023-04-24T13:11:17;4.22;;;2.90;;
75054;SDS011;63636;44.746;10.488;2023-04-24T13:13:43;4.45;;;2.85;;
75054;SDS011;63636;44.746;10.488;2023-04-24T13:16:08;4.82;;;2.70;;
75054;SDS011;63636;44.746;10.488;2023-04-24T13:18:34;5.03;;;2.90;;
75054;SDS011;63636;44.746;10.488;2023-04-24T13:21:00;5.18;;;2.80;;
75054;SDS011;63636;44.746;10.488;2023-04-24T13:23:26;5.82;;;2.92;;
75054;SDS011;63636;44.746;10.488;2023-04-24T13:25:51;6.38;;;3.25;;
75054;SDS011;63636;44.746;10.488;2023-04-24T13:28:17;4.63;;;3.28;;
75054;SDS011;63636;44.746;10.488;2023-04-24T13:30:43;4.03;;;2.97;;
75054;SDS011;63636;44.746;10.488;2023-04-24T13:33:08;4.15;;;2.78;;
75054;SDS011;63636;44.746;10.488;2023-04-24T13:35:34;4.65;;;2.58;;
75054;SDS011;63636;44.746;10.488;2023-04-24T13:37:59;4.03;;;2.67;;
75054;SDS011;63636;44.746;10.488;2023-04-24T13:40:26;4.28;;;2.92;;
75054;SDS011;63636;44.746;10.488;2023-04-24T13:42:52;4.05;;;2.80;;
75054;SDS011;63636;44.746;10.488;2023-04-24T13:45:18;4.75;;;3.20;;
75054;SDS011;63636;44.746;10.488;2023-04-24T13:47:43;4.45;;;2.90;;
75054;SDS011;63636;44.746;10.488;2023-04-24T13:50:09;17.17;;;4.15;;
75054;SDS011;63636;44.746;10.488;2023-04-24T13:52:35;7.22;;;2.83;;
75054;SDS011;63636;44.746;10.488;2023-04-24T13:55:01;4.70;;;3.28;;
75054;SDS011;63636;44.746;10.488;2023-04-24T13:57:26;5.20;;;2.88;;
75054;SDS011;63636;44.746;10.488;2023-04-24T13:59:53;4.80;;;2.90;;
75054;SDS011;63636;44.746;10.488;2023-04-24T14:02:21;5.03;;;3.00;;
75054;SDS011;63636;44.746;10.488;2023-04-24T14:04:46;4.55;;;3.00;;
75054;SDS011;63636;44.746;10.488;2023-04-24T14:07:13;4.40;;;2.40;;
75054;SDS011;63636;44.746;10.488;2023-04-24T14:09:39;3.00;;;2.20;;
75054;SDS011;63636;44.746;10.488;2023-04-24T14:12:05;3.50;;;2.00;;
75054;SDS011;63636;44.746;10.488;2023-04-24T14:14:32;3.30;;;2.00;;
75054;SDS011;63636;44.746;10.488;2023-04-24T14:16:57;5.75;;;1.92;;
75054;SDS011;63636;44.746;10.488;2023-04-24T14:19:23;3.33;;;2.00;;
75054;SDS011;63636;44.746;10.488;2023-04-24T14:21:49;2.38;;;1.27;;
75054;SDS011;63636;44.746;10.488;2023-04-24T14:24:14;2.15;;;1.17;;
75054;SDS011;63636;44.746;10.488;2023-04-24T14:26:40;2.70;;;0.93;;
75054;SDS011;63636;44.746;10.488;2023-04-24T14:29:06;2.08;;;0.95;;
75054;SDS011;63636;44.746;10.488;2023-04-24T14:31:31;2.55;;;0.90;;
75054;SDS011;63636;44.746;10.488;2023-04-24T14:33:57;1.73;;;0.95;;
75054;SDS011;63636;44.746;10.488;2023-04-24T14:36:23;1.73;;;0.90;;
75054;SDS011;63636;44.746;10.488;2023-04-24T14:38:48;0.98;;;0.80;;
75054;SDS011;63636;44.746;10.488;2023-04-24T14:41:14;0.98;;;0.60;;